createdAt,value
2022-10-03T00:04:53.083Z,22.14
2022-10-03T00:10:03.855Z,22.14
2022-10-03T00:15:09.999Z,22.18
2022-10-03T00:20:32.962Z,22.17
2022-10-03T00:25:41.365Z,22.18
2022-10-03T00:30:50.621Z,22.18
2022-10-03T00:36:00.589Z,22.18
2022-10-03T00:41:15.424Z,22.18
2022-10-03T00:46:40.543Z,22.18
2022-10-03T00:51:51.971Z,22.28
2022-10-03T00:57:04.553Z,22.25
2022-10-03T01:02:23.149Z,22.22
2022-10-03T01:07:33.167Z,22.20
2022-10-03T01:12:54.855Z,22.17
2022-10-03T01:18:08.625Z,22.18
2022-10-03T01:23:39.790Z,22.16
2022-10-03T01:29:07.967Z,22.18
2022-10-03T01:34:14.015Z,22.16
2022-10-03T01:39:20.024Z,22.19
2022-10-03T01:44:25.386Z,22.17
2022-10-03T01:49:30.935Z,22.15
2022-10-03T01:54:37.875Z,22.14
2022-10-03T01:59:43.081Z,22.16
2022-10-03T02:04:48.894Z,22.15
2022-10-03T02:09:58.309Z,22.17
2022-10-03T02:15:03.379Z,22.14
2022-10-03T02:20:08.085Z,22.13
2022-10-03T02:25:19.342Z,22.16
2022-10-03T02:30:24.313Z,22.12
2022-10-03T02:35:42.911Z,22.12
2022-10-03T02:40:51.032Z,22.10
2022-10-03T02:46:23.817Z,22.09
2022-10-03T02:51:50.271Z,22.11
2022-10-03T02:57:26.206Z,22.10
2022-10-03T03:03:01.224Z,22.13
2022-10-03T03:08:14.973Z,22.11
2022-10-03T03:13:30.801Z,22.12
2022-10-03T03:18:36.362Z,22.15
2022-10-03T03:23:55.078Z,22.15
2022-10-03T03:29:02.084Z,22.15
2022-10-03T03:34:08.101Z,22.11
2022-10-03T03:39:23.490Z,22.14
2022-10-03T03:44:48.377Z,22.15
2022-10-03T03:50:13.567Z,22.09
2022-10-03T03:55:33.403Z,22.05
2022-10-03T04:00:43.489Z,21.99
2022-10-03T04:05:55.500Z,21.98
2022-10-03T04:11:04.141Z,21.95
2022-10-03T04:16:12.398Z,21.94
2022-10-03T04:21:28.554Z,21.95
2022-10-03T04:26:38.472Z,21.96
2022-10-03T04:31:45.141Z,21.91
2022-10-03T04:37:13.842Z,21.85
2022-10-03T04:42:27.123Z,21.88
2022-10-03T04:47:32.367Z,21.74
2022-10-03T04:52:39.538Z,21.76
2022-10-03T04:57:45.485Z,21.74
2022-10-03T05:02:51.363Z,21.75
2022-10-03T05:08:02.395Z,21.74
2022-10-03T05:13:11.994Z,21.73
2022-10-03T05:18:16.407Z,21.71
2022-10-03T05:23:31.289Z,21.70
2022-10-03T05:28:38.908Z,21.65
2022-10-03T05:33:43.932Z,21.63
2022-10-03T05:39:31.463Z,21.60
2022-10-03T05:44:41.837Z,21.67
2022-10-03T05:49:51.357Z,21.57
2022-10-03T05:55:09.357Z,21.60
2022-10-03T06:00:19.497Z,21.65
2022-10-03T06:05:32.212Z,21.65
2022-10-03T06:10:44.424Z,21.66
2022-10-03T06:15:54.177Z,21.70
2022-10-03T06:21:15.561Z,21.70
2022-10-03T06:26:36.083Z,21.72
2022-10-03T06:37:25.778Z,22.37
2022-10-03T06:42:55.054Z,21.90
2022-10-03T06:48:08.502Z,21.86
2022-10-03T06:53:21.155Z,21.91
2022-10-03T06:58:43.527Z,21.93
2022-10-03T07:04:37.078Z,21.87
2022-10-03T07:10:19.256Z,21.94
2022-10-03T07:16:14.197Z,21.95
2022-10-03T07:21:37.705Z,22.01
2022-10-03T07:27:08.868Z,22.01
2022-10-03T07:32:19.122Z,22.00
2022-10-03T07:37:50.047Z,22.00
2022-10-03T07:43:03.914Z,22.01
2022-10-03T07:48:26.151Z,22.01
2022-10-03T07:53:43.340Z,21.94
2022-10-03T07:58:58.123Z,21.12
2022-10-03T08:04:30.452Z,21.04
2022-10-03T08:09:41.173Z,21.34
2022-10-03T08:14:57.975Z,21.50
2022-10-03T08:20:16.598Z,21.57
2022-10-03T08:25:27.037Z,21.69
2022-10-03T08:30:34.436Z,21.75
2022-10-03T08:35:48.652Z,21.82
2022-10-03T08:41:20.435Z,21.84
2022-10-03T08:46:37.873Z,21.83
2022-10-03T08:52:10.730Z,21.87
2022-10-03T08:57:42.694Z,21.94
2022-10-03T09:03:42.813Z,21.93
2022-10-03T09:09:25.551Z,22.00
2022-10-03T09:14:47.404Z,22.06
2022-10-03T09:20:29.269Z,22.04
2022-10-03T09:25:40.601Z,22.08
2022-10-03T09:30:49.273Z,22.06
2022-10-03T09:36:12.900Z,22.09
2022-10-03T09:41:52.776Z,22.11
2022-10-03T09:47:22.334Z,22.10
2022-10-03T09:52:36.186Z,22.13
2022-10-03T09:57:53.702Z,22.19
2022-10-03T10:03:42.356Z,22.23
2022-10-03T10:09:08.169Z,22.27
2022-10-03T10:14:30.085Z,22.35
2022-10-03T10:19:55.936Z,22.35
2022-10-03T10:25:24.848Z,22.41
2022-10-03T10:30:39.762Z,22.43
2022-10-03T10:35:55.021Z,22.43
2022-10-03T10:41:37.396Z,22.52
2022-10-03T10:46:55.872Z,22.48
2022-10-03T10:52:25.209Z,22.45
2022-10-03T10:57:53.152Z,22.47
2022-10-03T11:03:37.713Z,22.45
2022-10-03T11:09:12.664Z,22.40
2022-10-03T11:14:35.285Z,22.41
2022-10-03T11:20:16.932Z,22.38
2022-10-03T11:25:55.716Z,22.40
2022-10-03T11:31:31.743Z,22.41
2022-10-03T11:36:48.468Z,22.31
2022-10-03T11:41:54.587Z,22.34
2022-10-03T11:47:30.857Z,22.32
2022-10-03T11:52:36.163Z,22.32
2022-10-03T11:57:40.057Z,22.37
2022-10-03T12:03:20.294Z,22.39
2022-10-03T12:08:44.805Z,22.40
2022-10-03T12:14:08.622Z,22.34
2022-10-03T12:19:24.995Z,22.30
2022-10-03T12:24:29.379Z,22.28
2022-10-03T12:29:34.639Z,22.32
2022-10-03T12:34:39.685Z,22.39
2022-10-03T12:39:46.882Z,22.42
2022-10-03T12:44:52.469Z,22.42
2022-10-03T12:49:57.427Z,22.47
2022-10-03T12:55:14.375Z,22.40
2022-10-03T13:00:21.540Z,22.32
2022-10-03T13:05:37.676Z,22.43
2022-10-03T13:10:45.611Z,22.28
2022-10-03T13:16:04.263Z,22.39
2022-10-03T13:21:33.325Z,22.38
2022-10-03T13:26:43.516Z,22.41
2022-10-03T13:31:55.385Z,22.41
2022-10-03T13:37:00.587Z,22.44
2022-10-03T13:42:11.265Z,22.45
2022-10-03T13:47:29.930Z,22.47
2022-10-03T13:52:37.301Z,22.49
2022-10-03T13:57:44.759Z,22.45
2022-10-03T14:02:59.040Z,22.44
2022-10-03T14:08:08.529Z,22.48
2022-10-03T14:13:18.001Z,22.50
2022-10-03T14:18:30.278Z,22.50
2022-10-03T14:23:34.044Z,22.47
2022-10-03T14:28:39.471Z,22.48
2022-10-03T14:33:44.958Z,22.60
2022-10-03T14:39:02.161Z,22.71
2022-10-03T14:44:12.933Z,23.02
2022-10-03T14:49:48.525Z,23.37
2022-10-03T14:54:43.822Z,23.70
2022-10-03T14:59:50.927Z,23.99
2022-10-03T15:04:54.042Z,24.07
2022-10-03T15:09:58.516Z,23.46
2022-10-03T15:15:03.817Z,23.28
2022-10-03T15:20:07.673Z,23.27
2022-10-03T15:25:13.802Z,23.12
2022-10-03T15:30:22.454Z,22.85
2022-10-03T15:35:27.340Z,22.88
2022-10-03T15:40:32.199Z,23.04
2022-10-03T15:45:36.355Z,23.01
2022-10-03T15:50:41.129Z,22.94
2022-10-03T15:55:46.744Z,22.93
2022-10-03T16:00:54.622Z,22.90
2022-10-03T16:06:08.420Z,22.85
2022-10-03T16:11:14.343Z,22.91
2022-10-03T16:16:20.075Z,22.75
2022-10-03T16:21:44.858Z,21.92
2022-10-03T16:26:51.775Z,22.06
2022-10-03T16:31:56.976Z,22.22
2022-10-03T16:36:59.735Z,22.37
2022-10-03T16:42:03.211Z,22.44
2022-10-03T16:47:07.986Z,22.50
2022-10-03T16:52:11.583Z,22.54
2022-10-03T16:57:15.669Z,22.53
2022-10-03T17:02:20.904Z,22.48
2022-10-03T17:07:25.111Z,22.45
2022-10-03T17:12:29.579Z,22.50
2022-10-03T17:17:35.231Z,22.46
2022-10-03T17:22:38.929Z,22.46
2022-10-03T17:27:41.803Z,22.49
2022-10-03T17:32:45.889Z,22.57
2022-10-03T17:38:30.364Z,22.60
2022-10-03T17:43:36.700Z,22.56
2022-10-03T17:48:42.813Z,22.61
2022-10-03T17:53:53.158Z,22.55
2022-10-03T17:59:00.862Z,22.59
2022-10-03T18:04:05.750Z,22.55
2022-10-03T18:09:10.342Z,22.52
2022-10-03T18:14:14.748Z,22.43
2022-10-03T18:19:23.580Z,22.48
2022-10-03T18:24:46.737Z,22.52
2022-10-03T18:29:50.493Z,22.52
2022-10-03T18:35:01.461Z,22.51
2022-10-03T18:40:05.524Z,22.50
2022-10-03T18:45:17.021Z,22.52
2022-10-03T18:50:25.812Z,22.53
2022-10-03T18:55:30.318Z,22.52
2022-10-03T19:00:33.710Z,22.47
2022-10-03T19:05:40.366Z,22.46
2022-10-03T19:10:43.832Z,22.49
2022-10-03T19:16:18.281Z,22.50
2022-10-03T19:21:22.656Z,22.47
2022-10-03T19:26:26.701Z,22.51
2022-10-03T19:31:31.220Z,22.50
2022-10-03T19:36:36.501Z,22.46
2022-10-03T19:41:41.596Z,22.32
2022-10-03T19:46:54.649Z,22.40
2022-10-03T19:52:12.413Z,22.47
2022-10-03T19:57:16.224Z,22.48
2022-10-03T20:02:22.449Z,22.51
2022-10-03T20:07:45.700Z,22.52
2022-10-03T20:12:50.467Z,22.51
2022-10-03T20:17:53.824Z,22.48
2022-10-03T20:22:58.506Z,22.49
2022-10-03T20:28:02.850Z,22.49
2022-10-03T20:33:05.549Z,22.50
2022-10-03T20:38:14.331Z,22.53
2022-10-03T20:43:32.706Z,22.53
2022-10-03T20:48:36.512Z,22.53
2022-10-03T20:53:42.257Z,22.56
2022-10-03T20:58:50.964Z,22.52
2022-10-03T21:04:04.866Z,22.52
2022-10-03T21:09:08.876Z,22.51
2022-10-03T21:14:15.634Z,22.55
2022-10-03T21:19:20.896Z,22.50
2022-10-03T21:24:27.102Z,22.52
2022-10-03T21:29:30.793Z,22.52
2022-10-03T21:34:36.286Z,22.56
2022-10-03T21:39:44.613Z,22.54
2022-10-03T21:45:06.050Z,22.55
2022-10-03T21:50:08.801Z,22.54
2022-10-03T21:55:45.429Z,22.54
2022-10-03T22:01:02.872Z,22.53
2022-10-03T22:06:08.999Z,22.49
2022-10-03T22:11:17.782Z,22.47
2022-10-03T22:16:24.010Z,22.41
2022-10-03T22:21:27.596Z,22.37
2022-10-03T22:26:33.802Z,22.32
2022-10-03T22:31:39.865Z,22.28
2022-10-03T22:36:42.723Z,22.17
2022-10-03T22:41:47.502Z,22.17
2022-10-03T22:46:51.682Z,22.09
2022-10-03T22:51:54.931Z,22.07
2022-10-03T22:56:59.523Z,22.00
2022-10-03T23:02:03.544Z,22.00
2022-10-03T23:07:33.155Z,21.92
2022-10-03T23:12:39.525Z,21.87
2022-10-03T23:18:05.991Z,21.81
2022-10-03T23:23:13.723Z,21.78
2022-10-03T23:28:19.227Z,21.74
2022-10-03T23:33:53.081Z,21.70
2022-10-03T23:38:59.578Z,21.66
2022-10-03T23:44:03.792Z,21.62
2022-10-03T23:49:06.499Z,21.59
2022-10-03T23:54:09.532Z,21.56
2022-10-03T23:59:19.877Z,21.53
